Time;durP1;ratioP1;P1;durP2;ratioP2;P2;SDS_P1;SDS_P2;PMS_P1;PMS_P2;Temp;Humidity;BMP_temperature;BMP_pressure;BME280_temperature;BME280_humidity;BME280_pressure;Samples;Min_cycle;Max_cycle;Signal;HPM_P1;HPM_P2
2021/05/14 00:01:20;;;;;;;1999.90;999.90;;;8.00;99.90;;;;;;4901127;29;20186;-89
2021/05/14 00:03:45;;;;;;;1999.90;999.90;;;8.10;99.90;;;;;;4916885;29;20202;-89
2021/05/14 00:06:11;;;;;;;1999.90;999.90;;;8.10;99.90;;;;;;4917142;29;20186;-89
2021/05/14 00:08:37;;;;;;;1999.90;999.90;;;8.10;99.90;;;;;;4917059;29;20210;-89
2021/05/14 00:11:03;;;;;;;1999.90;999.90;;;8.00;99.90;;;;;;4917707;29;20182;-90
2021/05/14 00:13:39;;;;;;;;;;;;;;;;;;;;;
2021/05/14 00:16:07;;;;;;;1999.90;999.90;;;8.00;99.90;;;;;;4918238;29;20777;-89
2021/05/14 00:18:33;;;;;;;1999.90;999.90;;;8.10;99.90;;;;;;4916752;29;20200;-89
2021/05/14 00:20:59;;;;;;;1999.90;999.90;;;8.10;99.90;;;;;;4916844;29;20190;-89
2021/05/14 00:23:24;;;;;;;1999.90;999.90;;;8.10;99.90;;;;;;4916725;29;20192;-89
2021/05/14 00:25:50;;;;;;;1999.90;999.90;;;8.00;99.90;;;;;;4901201;29;20186;-90
2021/05/14 00:28:16;;;;;;;1999.90;999.90;;;8.00;99.90;;;;;;4916579;29;20190;-90
2021/05/14 00:30:42;;;;;;;1999.90;999.90;;;7.90;99.90;;;;;;4916724;29;20185;-90
2021/05/14 00:33:10;;;;;;;1999.90;999.90;;;7.90;99.90;;;;;;4917269;29;20204;-88
2021/05/14 00:35:36;;;;;;;1999.90;999.90;;;7.90;99.90;;;;;;4916606;29;20610;-90
2021/05/14 00:38:01;;;;;;;1999.90;999.90;;;7.90;99.90;;;;;;4917040;29;20245;-90
2021/05/14 00:40:27;;;;;;;1999.90;999.90;;;7.80;99.90;;;;;;4900610;29;20178;-88
2021/05/14 00:42:53;;;;;;;1999.90;999.90;;;7.90;99.90;;;;;;4915790;29;20182;-89
2021/05/14 00:45:19;;;;;;;1999.90;999.90;;;8.00;99.90;;;;;;4917693;29;20709;-90
2021/05/14 00:47:44;;;;;;;1999.90;999.90;;;8.10;99.90;;;;;;4916727;29;20182;-90
2021/05/14 00:50:11;;;;;;;1999.90;999.90;;;8.00;99.90;;;;;;4916921;29;20269;-89
2021/05/14 00:52:45;;;;;;;1999.90;999.90;;;8.10;99.90;;;;;;4900548;29;20273;-90
2021/05/14 00:55:11;;;;;;;1999.90;999.90;;;8.10;99.90;;;;;;4900727;29;20637;-89
2021/05/14 00:57:39;;;;;;;1999.90;999.90;;;8.10;99.90;;;;;;4900737;29;20272;-89
2021/05/14 01:00:06;;;;;;;1999.90;999.90;;;8.00;99.90;;;;;;4916432;29;20182;-89
2021/05/14 01:02:39;;;;;;;1999.90;999.90;;;8.00;99.90;;;;;;4916339;29;20233;-89
2021/05/14 01:05:05;;;;;;;1999.90;999.90;;;7.90;99.90;;;;;;4900715;29;20186;-89
2021/05/14 01:07:31;;;;;;;1999.90;999.90;;;8.00;99.90;;;;;;4916289;29;20241;-90
2021/05/14 01:09:57;;;;;;;1999.90;999.90;;;7.90;99.90;;;;;;4916380;29;20178;-91
2021/05/14 01:12:23;;;;;;;1999.90;999.90;;;7.90;99.90;;;;;;4900668;29;20642;-90
2021/05/14 01:14:48;;;;;;;1999.90;999.90;;;7.80;99.90;;;;;;4916430;29;20185;-89
2021/05/14 01:17:14;;;;;;;1999.90;999.90;;;7.80;99.90;;;;;;4900333;29;20990;-90
2021/05/14 01:19:43;;;;;;;1999.90;999.90;;;7.80;99.90;;;;;;4916816;29;20250;-89
2021/05/14 01:22:09;;;;;;;1999.90;999.90;;;7.70;99.90;;;;;;4900664;29;20190;-87
2021/05/14 01:24:37;;;;;;;1999.90;999.90;;;7.60;99.90;;;;;;4916381;29;20185;-89
2021/05/14 01:27:03;;;;;;;1999.90;999.90;;;7.60;99.90;;;;;;4901545;29;20178;-89
2021/05/14 01:29:29;;;;;;;1999.90;999.90;;;7.60;99.90;;;;;;4922254;29;20192;-89
2021/05/14 01:31:55;;;;;;;1999.90;999.90;;;7.50;99.90;;;;;;4916568;29;20642;-89
2021/05/14 01:34:21;;;;;;;1999.90;999.90;;;7.50;99.90;;;;;;4916369;29;20273;-90
2021/05/14 01:36:46;;;;;;;1999.90;999.90;;;7.60;99.90;;;;;;4917182;29;20293;-89
2021/05/14 01:39:16;;;;;;;1999.90;999.90;;;7.70;99.90;;;;;;4900194;29;20193;-89
2021/05/14 01:41:42;;;;;;;1999.90;999.90;;;7.80;99.90;;;;;;4916020;29;20662;-89
2021/05/14 01:44:09;;;;;;;1999.90;999.90;;;7.90;99.90;;;;;;4900341;29;20186;-89
2021/05/14 01:46:35;;;;;;;1999.90;999.90;;;7.90;99.90;;;;;;4915967;29;20249;-90
2021/05/14 01:49:01;;;;;;;1999.90;999.90;;;7.90;99.90;;;;;;4916111;29;20276;-90
2021/05/14 01:51:27;;;;;;;1999.90;999.90;;;7.80;99.90;;;;;;4916459;29;20186;-88
2021/05/14 01:53:53;;;;;;;1999.90;999.90;;;7.90;99.90;;;;;;4917036;29;20242;-89
2021/05/14 01:56:19;;;;;;;1999.90;999.90;;;7.90;99.90;;;;;;4919544;29;20558;-90
2021/05/14 01:58:51;;;;;;;1999.90;999.90;;;7.80;99.90;;;;;;4919044;29;20190;-90
2021/05/14 02:01:17;;;;;;;1999.90;999.90;;;7.80;99.90;;;;;;4919342;29;20178;-88
2021/05/14 02:03:43;;;;;;;1999.90;999.90;;;7.80;99.90;;;;;;4919666;29;20229;-89
2021/05/14 02:06:09;;;;;;;1999.90;999.90;;;7.80;99.90;;;;;;4919004;29;20243;-89
2021/05/14 02:08:37;;;;;;;1999.90;999.90;;;7.80;99.90;;;;;;4919256;29;20190;-89
2021/05/14 02:11:03;;;;;;;1999.90;999.90;;;7.90;99.90;;;;;;4919060;29;20186;-90
2021/05/14 02:13:30;;;;;;;1999.90;999.90;;;7.90;99.90;;;;;;4919283;29;20275;-91
2021/05/14 02:15:55;;;;;;;1999.90;999.90;;;7.90;99.90;;;;;;4919048;29;20194;-90
2021/05/14 02:18:21;;;;;;;1999.90;999.90;;;8.00;99.90;;;;;;4918683;29;20681;-90
2021/05/14 02:20:47;;;;;;;1999.90;999.90;;;7.90;99.90;;;;;;4918803;29;20186;-89
2021/05/14 02:23:13;;;;;;;1999.90;999.90;;;7.90;99.90;;;;;;4919051;29;20182;-89
2021/05/14 02:25:39;;;;;;;1999.90;999.90;;;8.00;99.90;;;;;;4918769;29;20189;-91
2021/05/14 02:28:07;;;;;;;1999.90;999.90;;;8.00;99.90;;;;;;4902861;29;20684;-89
2021/05/14 02:30:33;;;;;;;1999.90;999.90;;;8.00;99.90;;;;;;4919312;29;20193;-89
2021/05/14 02:32:59;;;;;;;1999.90;999.90;;;8.00;99.90;;;;;;4902922;29;20186;-90
2021/05/14 02:35:24;;;;;;;1999.90;999.90;;;7.90;99.90;;;;;;4902862;29;20222;-88
2021/05/14 02:37:53;;;;;;;1999.90;999.90;;;8.00;99.90;;;;;;4918733;29;20666;-90
2021/05/14 02:40:19;;;;;;;1999.90;999.90;;;7.90;99.90;;;;;;4918603;29;20182;-89
2021/05/14 02:42:44;;;;;;;1999.90;999.90;;;7.90;99.90;;;;;;4918663;29;20197;-89
2021/05/14 02:45:11;;;;;;;1999.90;999.90;;;7.90;99.90;;;;;;4918290;29;20186;-91
2021/05/14 02:47:45;;;;;;;1999.90;999.90;;;7.90;99.90;;;;;;4918373;29;20190;-90
2021/05/14 02:50:11;;;;;;;1999.90;999.90;;;7.90;99.90;;;;;;4918542;29;20225;-90
2021/05/14 02:52:37;;;;;;;1999.90;999.90;;;7.80;99.90;;;;;;4934221;29;20186;-89
2021/05/14 02:55:04;;;;;;;1999.90;999.90;;;7.70;99.90;;;;;;4918397;29;20186;-89
2021/05/14 02:57:33;;;;;;;1999.90;999.90;;;7.70;99.90;;;;;;4919462;29;20214;-91
2021/05/14 02:59:58;;;;;;;1999.90;999.90;;;7.60;99.90;;;;;;4918569;29;20272;-89
2021/05/14 03:02:24;;;;;;;1999.90;999.90;;;7.60;99.90;;;;;;4902051;29;20237;-90
2021/05/14 03:04:50;;;;;;;1999.90;999.90;;;7.70;99.90;;;;;;4918338;29;20193;-89
2021/05/14 03:07:16;;;;;;;1999.90;999.90;;;7.80;99.90;;;;;;4901453;29;20253;-90
2021/05/14 03:09:41;;;;;;;1999.90;999.90;;;7.80;99.90;;;;;;4917844;29;20204;-90
2021/05/14 03:12:08;;;;;;;1999.90;999.90;;;7.80;99.90;;;;;;4918243;29;20285;-90
2021/05/14 03:14:34;;;;;;;1999.90;999.90;;;7.80;99.90;;;;;;4917871;29;20189;-90
2021/05/14 03:17:00;;;;;;;1999.90;999.90;;;7.70;99.90;;;;;;4918079;29;20213;-90
2021/05/14 03:19:26;;;;;;;1999.90;999.90;;;7.70;99.90;;;;;;4921218;29;20197;-89
2021/05/14 03:21:52;;;;;;;1999.90;999.90;;;7.80;99.90;;;;;;4921087;29;20174;-89
2021/05/14 03:24:17;;;;;;;1999.90;999.90;;;7.70;99.90;;;;;;4917793;29;20193;-89
2021/05/14 03:26:44;;;;;;;1999.90;999.90;;;7.80;99.90;;;;;;4918045;29;20190;-90
2021/05/14 03:29:10;;;;;;;1999.90;999.90;;;7.80;99.90;;;;;;4917607;29;20190;-90
2021/05/14 03:31:35;;;;;;;1999.90;999.90;;;7.80;99.90;;;;;;4917546;29;20218;-89
2021/05/14 03:34:01;;;;;;;1999.90;999.90;;;7.80;99.90;;;;;;4917766;29;20182;-89
2021/05/14 03:36:27;;;;;;;1999.90;999.90;;;7.70;99.90;;;;;;4917383;29;20317;-89
2021/05/14 03:38:53;;;;;;;1999.90;999.90;;;7.70;99.90;;;;;;4917837;29;20718;-90
2021/05/14 03:41:45;;;;;;;1999.90;999.90;;;7.70;99.90;;;;;;4917584;29;20183;-89
2021/05/14 03:44:14;;;;;;;1999.90;999.90;;;7.70;99.90;;;;;;4917416;29;20273;-90
2021/05/14 03:46:40;;;;;;;1999.90;999.90;;;7.70;99.90;;;;;;4901827;29;20234;-90
2021/05/14 03:49:09;;;;;;;1999.90;999.90;;;7.60;99.90;;;;;;4917606;29;20582;-89
2021/05/14 03:51:38;;;;;;;1999.90;999.90;;;7.60;99.90;;;;;;4917472;29;20186;-90
2021/05/14 03:54:04;;;;;;;1999.90;999.90;;;7.50;99.90;;;;;;4901753;29;20214;-89
2021/05/14 03:56:31;;;;;;;1999.90;999.90;;;7.40;99.90;;;;;;4913999;29;20690;-89
2021/05/14 03:58:59;;;;;;;1999.90;999.90;;;7.30;99.90;;;;;;4900805;29;20193;-90
2021/05/14 04:01:25;;;;;;;1999.90;999.90;;;7.30;99.90;;;;;;4906905;29;20218;-90
2021/05/14 04:03:51;;;;;;;1999.90;999.90;;;7.30;99.90;;;;;;4911449;29;20249;-89
2021/05/14 04:06:17;;;;;;;1999.90;999.90;;;7.30;99.90;;;;;;4905808;29;20178;-89
2021/05/14 04:08:42;;;;;;;1999.90;999.90;;;7.30;99.90;;;;;;4917185;29;20174;-89
2021/05/14 04:20:07;;;;;;;1999.90;999.90;;;7.20;99.90;;;;;;6054793;23;20180;31
2021/05/14 04:33:42;;;;;;;1999.90;999.90;;;7.20;99.90;;;;;;5133306;23;20240;-89
2021/05/14 04:36:08;;;;;;;1999.90;999.90;;;7.20;99.90;;;;;;4919967;29;20185;-91
2021/05/14 04:38:37;;;;;;;1999.90;999.90;;;7.20;99.90;;;;;;4937305;29;20181;-93
2021/05/14 04:41:03;;;;;;;1999.90;999.90;;;7.20;99.90;;;;;;4919694;29;20205;-89
2021/05/14 04:43:31;;;;;;;1999.90;999.90;;;7.30;99.90;;;;;;4935998;29;20185;-93
2021/05/14 04:45:59;;;;;;;1999.90;999.90;;;7.30;99.90;;;;;;4920386;29;20242;-92
2021/05/14 04:48:27;;;;;;;1999.90;999.90;;;7.30;99.90;;;;;;4916831;29;20637;-91
2021/05/14 04:50:53;;;;;;;1999.90;999.90;;;7.30;99.90;;;;;;4911398;29;20237;-92
2021/05/14 04:53:28;;;;;;;1999.90;999.90;;;7.40;99.90;;;;;;4916577;29;20598;-91
2021/05/14 04:55:57;;;;;;;1999.90;999.90;;;7.40;99.90;;;;;;4916761;29;20181;-93
2021/05/14 04:58:25;;;;;;;1999.90;999.90;;;7.40;99.90;;;;;;4917342;29;20190;-92
2021/05/14 05:00:51;;;;;;;1999.90;999.90;;;7.50;99.90;;;;;;4916936;29;20189;-92
2021/05/14 05:03:17;;;;;;;1999.90;999.90;;;7.60;99.90;;;;;;4916831;29;20194;-87
2021/05/14 05:05:43;;;;;;;1999.90;999.90;;;7.60;99.90;;;;;;4915896;29;20182;-87
2021/05/14 05:08:08;;;;;;;1999.90;999.90;;;7.60;99.90;;;;;;4915781;29;20178;-88
2021/05/14 05:10:34;;;;;;;1999.90;999.90;;;7.80;99.90;;;;;;4915689;29;20189;-88
2021/05/14 05:13:00;;;;;;;1999.90;999.90;;;7.80;99.90;;;;;;4915777;29;20190;-90
2021/05/14 05:15:26;;;;;;;1999.90;999.90;;;7.90;99.90;;;;;;4918170;29;20516;-91
2021/05/14 05:17:52;;;;;;;1999.90;999.90;;;7.90;99.90;;;;;;4916358;29;20220;-90
2021/05/14 05:20:17;;;;;;;1999.90;999.90;;;8.00;99.90;;;;;;4916028;29;20192;-88
2021/05/14 05:22:43;;;;;;;1999.90;999.90;;;8.00;99.90;;;;;;4916420;29;20273;-87
2021/05/14 05:25:09;;;;;;;1999.90;999.90;;;8.30;99.90;;;;;;4917606;29;20178;-91
2021/05/14 05:27:43;;;;;;;1999.90;999.90;;;8.50;99.90;;;;;;4916698;29;20226;-93
2021/05/14 05:30:09;;;;;;;1999.90;999.90;;;8.70;99.90;;;;;;4918373;29;20186;-91
2021/05/14 05:32:35;;;;;;;1999.90;999.90;;;8.90;99.90;;;;;;4919834;29;20701;-92
2021/05/14 05:35:03;;;;;;;1999.90;999.90;;;9.00;99.90;;;;;;4920155;29;20186;-92
2021/05/14 05:37:29;;;;;;;1999.90;999.90;;;9.10;99.90;;;;;;4919949;29;20206;-93
2021/05/14 05:39:54;;;;;;;1999.90;999.90;;;9.10;99.90;;;;;;4919337;29;20185;-92
2021/05/14 05:42:20;;;;;;;1999.90;999.90;;;9.30;99.90;;;;;;4922321;29;20197;-93
2021/05/14 05:44:46;;;;;;;1999.90;999.90;;;9.30;99.90;;;;;;4918798;29;20200;-88
2021/05/14 05:47:11;;;;;;;1999.90;999.90;;;9.60;99.90;;;;;;4902844;29;20184;-88
2021/05/14 05:49:37;;;;;;;1999.90;999.90;;;9.90;99.90;;;;;;4923734;29;20563;-92
2021/05/14 05:52:03;;;;;;;1999.90;999.90;;;10.10;99.90;;;;;;4922220;29;20181;-93
2021/05/14 05:54:32;;;;;;;1999.90;999.90;;;10.30;99.90;;;;;;4922728;29;20564;-93
2021/05/14 05:57:00;;;;;;;1999.90;999.90;;;10.80;99.90;;;;;;4923108;29;20212;-94
2021/05/14 05:59:31;;;;;;;1999.90;999.90;;;11.10;99.90;;;;;;4923711;29;20192;-95
2021/05/14 06:02:08;;;;;;;1999.90;999.90;;;11.40;99.90;;;;;;4923628;29;20204;-93
2021/05/14 06:04:36;;;;;;;1999.90;999.90;;;11.60;99.90;;;;;;4916271;29;20196;-92
2021/05/14 06:07:27;;;;;;;1999.90;999.90;;;11.90;99.90;;;;;;4920252;29;20189;-93
2021/05/14 06:09:53;;;;;;;1999.90;999.90;;;11.70;99.90;;;;;;4906810;29;20193;-93
2021/05/14 06:12:19;;;;;;;1999.90;999.90;;;11.80;99.90;;;;;;4921914;29;20212;-91
2021/05/14 06:14:44;;;;;;;1999.90;999.90;;;12.00;99.90;;;;;;4920600;29;20229;-90
2021/05/14 06:17:13;;;;;;;1999.90;999.90;;;12.10;99.90;;;;;;4919477;29;20640;-90
2021/05/14 06:19:46;;;;;;;1999.90;999.90;;;11.90;99.90;;;;;;4921258;29;20217;-90
2021/05/14 06:22:12;;;;;;;1999.90;999.90;;;11.90;99.90;;;;;;4920860;29;20205;-92
2021/05/14 06:24:38;;;;;;;1999.90;999.90;;;12.00;99.90;;;;;;4920386;29;20185;-89
2021/05/14 06:27:04;;;;;;;1999.90;999.90;;;12.10;99.90;;;;;;4936131;29;20196;-88
2021/05/14 06:29:30;;;;;;;1999.90;999.90;;;12.40;99.90;;;;;;4938406;29;20648;-89
2021/05/14 06:31:55;;;;;;;1999.90;999.90;;;12.50;99.90;;;;;;4921399;29;20224;-86
2021/05/14 06:34:21;;;;;;;1999.90;999.90;;;12.60;99.90;;;;;;4920751;29;20203;-85
2021/05/14 06:36:46;;;;;;;1999.90;999.90;;;12.70;99.90;;;;;;4944957;29;20216;-85
2021/05/14 06:39:12;;;;;;;1999.90;999.90;;;13.00;99.90;;;;;;4935928;29;20185;-87
2021/05/14 06:41:38;;;;;;;1999.90;999.90;;;13.10;99.90;;;;;;4919711;29;20192;-86
2021/05/14 06:44:04;;;;;;;1999.90;999.90;;;13.30;99.90;;;;;;4937628;29;20632;-90
2021/05/14 06:46:31;;;;;;;1999.90;999.90;;;13.10;99.90;;;;;;4917055;29;20185;-88
2021/05/14 06:48:56;;;;;;;1999.90;999.90;;;13.40;99.90;;;;;;4920716;29;20588;-90
2021/05/14 06:51:22;;;;;;;1999.90;999.90;;;13.30;99.90;;;;;;4917985;29;20252;-91
2021/05/14 06:53:50;;;;;;;1999.90;999.90;;;13.30;99.90;;;;;;4906739;29;20560;-90
2021/05/14 06:56:15;;;;;;;1999.90;999.90;;;13.40;99.90;;;;;;4926411;29;20259;-89
2021/05/14 06:58:41;;;;;;;1999.90;999.90;;;13.50;99.90;;;;;;4921114;29;20181;-86
2021/05/14 07:01:07;;;;;;;1999.90;999.90;;;13.40;99.90;;;;;;4927698;29;20189;-86
2021/05/14 07:03:33;;;;;;;1999.90;999.90;;;13.40;99.90;;;;;;4942087;29;20205;-87
2021/05/14 07:06:07;;;;;;;1999.90;999.90;;;13.40;99.90;;;;;;4937735;29;20587;-88
2021/05/14 07:08:33;;;;;;;1999.90;999.90;;;13.30;99.90;;;;;;4920519;29;20252;-88
2021/05/14 07:10:59;;;;;;;1999.90;999.90;;;13.30;99.90;;;;;;4921179;29;20173;-90
2021/05/14 07:13:27;;;;;;;1999.90;999.90;;;13.50;99.90;;;;;;4921359;29;20693;-91
2021/05/14 07:15:53;;;;;;;1999.90;999.90;;;13.70;99.90;;;;;;4921049;29;20209;-90
2021/05/14 07:18:28;;;;;;;1999.90;999.90;;;13.80;99.90;;;;;;4920792;29;20308;-91
2021/05/14 07:20:57;;;;;;;1999.90;999.90;;;13.80;99.90;;;;;;4920154;29;20184;-90
2021/05/14 07:23:23;;;;;;;1999.90;999.90;;;14.10;99.90;;;;;;4917453;29;20189;-89
2021/05/14 07:25:51;;;;;;;1999.90;999.90;;;14.40;99.90;;;;;;4918505;29;20177;-89
2021/05/14 07:28:19;;;;;;;1999.90;999.90;;;14.90;99.90;;;;;;4919583;29;20197;-91
2021/05/14 07:30:56;;;;;;;1999.90;999.90;;;15.00;99.90;;;;;;4917963;29;20232;-91
2021/05/14 07:33:22;;;;;;;1999.90;999.90;;;15.00;99.90;;;;;;4918489;29;20215;-90
2021/05/14 07:35:48;;;;;;;1999.90;999.90;;;15.20;99.90;;;;;;4920838;29;20272;-88
2021/05/14 07:38:14;;;;;;;1999.90;999.90;;;15.40;99.90;;;;;;4917202;29;20221;-90
2021/05/14 07:40:40;;;;;;;1999.90;999.90;;;15.70;99.90;;;;;;4935232;29;20192;-92
2021/05/14 07:43:06;;;;;;;1999.90;999.90;;;15.90;99.90;;;;;;4925767;29;20193;-88
2021/05/14 07:45:39;;;;;;;1999.90;999.90;;;16.10;99.90;;;;;;4937266;29;20189;-92
2021/05/14 07:48:36;;;;;;;1999.90;999.90;;;16.40;99.90;;;;;;4937653;29;20657;-93
2021/05/14 07:51:04;;;;;;;1999.90;999.90;;;16.70;99.90;;;;;;4920309;29;20215;-91
2021/05/14 07:53:30;;;;;;;1999.90;999.90;;;16.80;99.90;;;;;;4919640;29;20557;-92
2021/05/14 07:56:08;;;;;;;1999.90;999.90;;;16.90;99.90;;;;;;4920199;29;20272;-92
2021/05/14 07:58:37;;;;;;;1999.90;999.90;;;17.30;99.90;;;;;;4920155;29;20729;-90
2021/05/14 08:01:05;;;;;;;1999.90;999.90;;;17.00;99.90;;;;;;4920360;29;20196;-90
2021/05/14 08:03:44;;;;;;;1999.90;999.90;;;16.80;99.90;;;;;;4937378;29;20673;-90
2021/05/14 08:06:42;;;;;;;1999.90;999.90;;;16.90;99.90;;;;;;4937446;29;20189;-92
2021/05/14 08:13:33;;;;;;;1999.90;999.90;;;17.30;99.90;;;;;;4933296;29;20187;-88
2021/05/14 08:16:41;;;;;;;1999.90;999.90;;;17.20;99.90;;;;;;4955640;28;20212;-88
2021/05/14 08:19:32;;;;;;;1999.90;999.90;;;17.40;99.90;;;;;;4939656;29;20185;-87
2021/05/14 08:28:34;;;;;;;1999.90;999.90;;;18.70;99.90;;;;;;4865108;29;20848;-90
2021/05/14 08:31:50;;;;;;;1999.90;999.90;;;18.90;99.90;;;;;;4909958;29;20268;-91
2021/05/14 08:35:07;;;;;;;;;;;;;;;;;;;;;
2021/05/14 08:38:00;;;;;;;;;;;;;;;;;;;;;
2021/05/14 08:45:28;;;;;;;1999.90;999.90;;;18.40;99.90;;;;;;4920594;29;20216;-91
2021/05/14 08:50:53;;;;;;;;;;;;;;;;;;;;;
2021/05/14 08:56:46;;;;;;;1999.90;999.90;;;18.10;99.90;;;;;;4914217;29;20217;-90
2021/05/14 08:59:26;;;;;;;1999.90;999.90;;;17.90;99.90;;;;;;4919931;29;20251;-90
2021/05/14 09:02:02;;;;;;;1999.90;999.90;;;17.60;99.90;;;;;;4936985;29;20189;-89
2021/05/14 09:05:00;;;;;;;1999.90;999.90;;;17.50;99.90;;;;;;4939641;29;20222;-90
2021/05/14 09:07:26;;;;;;;1999.90;999.90;;;17.10;99.90;;;;;;4939929;29;20198;-89
2021/05/14 09:10:22;;;;;;;1999.90;999.90;;;17.00;99.90;;;;;;4942643;29;20644;-90
2021/05/14 09:13:00;;;;;;;1999.90;999.90;;;17.00;99.90;;;;;;4940333;29;20201;-90
2021/05/14 11:15:40;;;;;;;1999.90;999.90;;;16.90;99.90;;;;;;4927204;29;20217;-91
2021/05/14 11:24:34;;;;;;;1999.90;999.90;;;17.00;99.90;;;;;;5034506;23;20603;-92
2021/05/14 13:19:49;;;;;;;1999.90;999.90;;;14.60;99.90;;;;;;5940373;23;20188;-94
2021/05/14 13:33:16;;;;;;;1999.90;999.90;;;12.50;99.90;;;;;;4923206;29;20190;-93
2021/05/14 14:27:36;;;;;;;;;;;;;;;;;;;;;
2021/05/14 14:40:37;;;;;;;1999.90;999.90;;;15.50;99.90;;;;;;5179682;23;20324;-91
2021/05/14 14:43:03;;;;;;;1999.90;999.90;;;15.70;99.90;;;;;;4905956;29;20221;-90
2021/05/14 14:45:29;;;;;;;1999.90;999.90;;;15.60;99.90;;;;;;4916567;29;20189;-87
2021/05/14 14:47:54;;;;;;;1999.90;999.90;;;15.60;99.90;;;;;;4918248;29;20581;-89
2021/05/14 14:50:20;;;;;;;1999.90;999.90;;;15.40;99.90;;;;;;4918084;29;20233;-88
2021/05/14 14:52:48;;;;;;;1999.90;999.90;;;15.40;99.90;;;;;;4918216;29;20234;-88
2021/05/14 14:55:14;;;;;;;1999.90;999.90;;;15.10;99.90;;;;;;4914949;29;20650;-88
2021/05/14 14:57:40;;;;;;;1999.90;999.90;;;14.90;99.90;;;;;;4899373;29;20202;-88
2021/05/14 15:00:06;;;;;;;1999.90;999.90;;;14.70;99.90;;;;;;4899098;29;20250;-88
2021/05/14 15:02:32;;;;;;;1999.90;999.90;;;14.60;99.90;;;;;;4912354;29;20193;-89
2021/05/14 15:04:58;;;;;;;1999.90;999.90;;;14.40;99.90;;;;;;4918149;29;20594;-88
2021/05/14 15:07:24;;;;;;;1999.90;999.90;;;14.50;99.90;;;;;;4917564;29;20197;-90
2021/05/14 15:09:50;;;;;;;1999.90;999.90;;;14.50;99.90;;;;;;4917612;29;20190;-89
2021/05/14 15:12:16;;;;;;;1999.90;999.90;;;14.40;99.90;;;;;;4918974;29;20178;-87
2021/05/14 15:14:44;;;;;;;1999.90;999.90;;;14.40;99.90;;;;;;4917618;29;20193;-87
2021/05/14 15:17:11;;;;;;;1999.90;999.90;;;14.50;99.90;;;;;;4918332;29;20300;-87
2021/05/14 15:19:36;;;;;;;1999.90;999.90;;;14.50;99.90;;;;;;4918132;29;20186;-87
2021/05/14 15:22:02;;;;;;;1999.90;999.90;;;14.60;99.90;;;;;;4902124;29;20205;-87
2021/05/14 15:24:29;;;;;;;1999.90;999.90;;;14.60;99.90;;;;;;4906326;29;20229;-87
2021/05/14 15:26:55;;;;;;;1999.90;999.90;;;14.80;99.90;;;;;;4918504;29;20181;-88
2021/05/14 15:29:21;;;;;;;1999.90;999.90;;;15.00;99.90;;;;;;4901449;29;20185;-87
2021/05/14 15:31:46;;;;;;;1999.90;999.90;;;15.20;99.90;;;;;;4918246;29;20556;-87
2021/05/14 15:34:12;;;;;;;1999.90;999.90;;;15.30;99.90;;;;;;4917048;29;20222;-87
2021/05/14 15:36:38;;;;;;;1999.90;999.90;;;15.20;99.90;;;;;;4916601;29;20265;-89
2021/05/14 15:39:04;;;;;;;1999.90;999.90;;;15.30;99.90;;;;;;4917077;29;20685;-88
2021/05/14 15:41:30;;;;;;;1999.90;999.90;;;15.20;99.90;;;;;;4901670;29;20593;-89
2021/05/14 15:43:55;;;;;;;1999.90;999.90;;;15.20;99.90;;;;;;4918236;29;20210;-89
2021/05/14 15:46:24;;;;;;;1999.90;999.90;;;15.20;99.90;;;;;;4917813;29;20245;-88
2021/05/14 15:49:00;;;;;;;1999.90;999.90;;;15.20;99.90;;;;;;4925906;29;20178;-89
2021/05/14 15:51:26;;;;;;;1999.90;999.90;;;15.20;99.90;;;;;;4933090;29;20217;-87
2021/05/14 15:54:01;;;;;;;1999.90;999.90;;;15.10;99.90;;;;;;4916965;29;20206;-91
2021/05/14 15:56:32;;;;;;;1999.90;999.90;;;15.00;99.90;;;;;;4917631;29;20181;-91
2021/05/14 15:58:58;;;;;;;1999.90;999.90;;;14.80;99.90;;;;;;4917605;29;20202;-86
2021/05/14 16:01:24;;;;;;;1999.90;999.90;;;14.90;99.90;;;;;;4919028;29;20178;-86
2021/05/14 16:03:50;;;;;;;1999.90;999.90;;;14.90;99.90;;;;;;4917997;29;20186;-90
2021/05/14 16:06:15;;;;;;;1999.90;999.90;;;14.80;99.90;;;;;;4912924;29;20198;-91
2021/05/14 16:08:44;;;;;;;1999.90;999.90;;;15.00;99.90;;;;;;4916177;29;20190;-89
2021/05/14 16:15:09;;;;;;;;;;;;;;;;;;;;;
2021/05/14 16:18:05;;;;;;;1999.90;999.90;;;15.40;99.90;;;;;;4884895;29;20206;-92
2021/05/14 16:24:29;;;;;;;1999.90;999.90;;;15.80;99.90;;;;;;4879711;29;20187;-92
2021/05/14 17:27:17;;;;;;;1999.90;999.90;;;10.70;99.90;;;;;;4936776;29;20219;-92
2021/05/14 17:30:58;;;;;;;;;;;;;;;;;;;;;
2021/05/14 17:33:26;;;;;;;1999.90;999.90;;;10.40;99.90;;;;;;4865017;29;20598;-90
2021/05/14 17:36:12;;;;;;;1999.90;999.90;;;10.40;99.90;;;;;;4879429;29;20213;-89
2021/05/14 17:39:21;;;;;;;1999.90;999.90;;;10.30;99.90;;;;;;4936513;29;20236;-92
2021/05/14 17:41:49;;;;;;;1999.90;999.90;;;10.30;99.90;;;;;;4913253;29;20177;-92
2021/05/14 17:44:23;;;;;;;1999.90;999.90;;;10.30;99.90;;;;;;4924621;29;20178;-90
2021/05/14 17:47:18;;;;;;;1999.90;999.90;;;10.40;99.90;;;;;;4922750;29;20192;-90
2021/05/14 17:49:49;;;;;;;1999.90;999.90;;;10.50;99.90;;;;;;4910356;29;20585;-91
2021/05/14 17:52:49;;;;;;;1999.90;999.90;;;10.60;99.90;;;;;;4922558;29;20185;-92
2021/05/14 17:55:18;;;;;;;1999.90;999.90;;;10.50;99.90;;;;;;4897520;29;20193;-89
2021/05/14 17:57:43;;;;;;;1999.90;999.90;;;10.50;99.90;;;;;;4905508;29;20233;-88
2021/05/14 18:00:26;;;;;;;;;;;;;;;;;;;;;
2021/05/14 18:02:54;;;;;;;1999.90;999.90;;;10.40;99.90;;;;;;4940164;29;20528;-91
2021/05/14 18:05:23;;;;;;;1999.90;999.90;;;10.40;99.90;;;;;;4922785;29;20649;-91
2021/05/14 18:07:49;;;;;;;1999.90;999.90;;;10.50;99.90;;;;;;4919326;29;20237;-90
2021/05/14 18:10:55;;;;;;;1999.90;999.90;;;10.50;99.90;;;;;;4903657;29;20190;-91
2021/05/14 18:13:29;;;;;;;1999.90;999.90;;;10.50;99.90;;;;;;4903528;29;20204;-91
2021/05/14 18:15:58;;;;;;;1999.90;999.90;;;10.50;99.90;;;;;;4903648;29;20192;-91
2021/05/14 18:21:08;;;;;;;1999.90;999.90;;;10.50;99.90;;;;;;4921024;29;20548;-89
2021/05/14 18:23:44;;;;;;;1999.90;999.90;;;10.50;99.90;;;;;;4903580;29;20182;-90
2021/05/14 18:26:09;;;;;;;1999.90;999.90;;;10.50;99.90;;;;;;4903996;29;20206;-91
2021/05/14 18:28:38;;;;;;;1999.90;999.90;;;10.50;99.90;;;;;;4906256;29;20250;-91
2021/05/14 18:31:07;;;;;;;1999.90;999.90;;;10.40;99.90;;;;;;4903125;29;20741;-90
2021/05/14 18:33:34;;;;;;;1999.90;999.90;;;10.40;99.90;;;;;;4904154;29;20185;-91
2021/05/14 18:40:40;;;;;;;;;;;;;;;;;;;;;
2021/05/14 18:43:06;;;;;;;1999.90;999.90;;;10.20;99.90;;;;;;4771282;30;20180;-91
2021/05/14 18:46:06;;;;;;;1999.90;999.90;;;10.20;99.90;;;;;;4758270;29;20275;-92
2021/05/14 18:52:06;;;;;;;1999.90;999.90;;;10.10;99.90;;;;;;4843345;29;20204;-92
2021/05/14 18:58:06;;;;;;;1999.90;999.90;;;9.90;99.90;;;;;;4806882;29;20274;-91
2021/05/14 19:00:35;;;;;;;1999.90;999.90;;;9.90;99.90;;;;;;4809320;29;20201;-91
2021/05/14 19:03:01;;;;;;;1999.90;999.90;;;9.80;99.90;;;;;;4843385;29;20193;-91
2021/05/14 19:09:41;;;;;;;;;;;;;;;;;;;;;
2021/05/14 19:12:13;;;;;;;1999.90;999.90;;;9.80;99.90;;;;;;4802835;29;20219;-91
2021/05/14 19:14:56;;;;;;;1999.90;999.90;;;9.80;99.90;;;;;;4902352;29;20281;-93
2021/05/14 19:17:28;;;;;;;1999.90;999.90;;;9.80;99.90;;;;;;4902561;29;20221;-89
2021/05/14 19:19:57;;;;;;;1999.90;999.90;;;9.80;99.90;;;;;;4902531;29;20326;-91
2021/05/14 19:22:32;;;;;;;1999.90;999.90;;;9.80;99.90;;;;;;4902566;29;20197;-92
2021/05/14 19:25:17;;;;;;;1999.90;999.90;;;9.80;99.90;;;;;;4901895;29;20605;-93
2021/05/14 19:36:06;;;;;;;1999.90;999.90;;;9.50;99.90;;;;;;4919012;29;20630;-92
2021/05/14 19:45:10;;;;;;;1999.90;999.90;;;9.50;99.90;;;;;;4873080;29;20188;-94
2021/05/14 19:48:20;;;;;;;1999.90;999.90;;;9.50;99.90;;;;;;4917907;29;20241;-92
2021/05/14 19:50:28;;;;;;;1999.90;999.90;;;9.50;99.90;;;;;;4915935;29;20186;-90
2021/05/14 19:52:58;;;;;;;1999.90;999.90;;;9.40;99.90;;;;;;4917411;29;20189;-91
2021/05/14 19:55:25;;;;;;;1999.90;999.90;;;9.50;99.90;;;;;;4917745;29;20178;-92
2021/05/14 19:57:58;;;;;;;1999.90;999.90;;;9.40;99.90;;;;;;4925308;29;20210;-93
2021/05/14 20:00:25;;;;;;;1999.90;999.90;;;9.30;99.90;;;;;;4902214;29;20642;-92
2021/05/14 20:03:29;;;;;;;1999.90;999.90;;;9.20;99.90;;;;;;4900653;29;20206;-92
2021/05/14 20:06:05;;;;;;;1999.90;999.90;;;9.20;99.90;;;;;;4901454;29;20182;-91